Barbers Point NAS, Hawaii
Current Conditions -  °F | °C
As of 7:53 PM on Friday 24 Oct 2014 (Local Time) from PHJR Reporting Station
Broken Clouds Broken Clouds  
Wind Chill: 76°   Ceiling: 7000
Heat Index: 76°   Visibility: 10mi
Dew Point: 69°   Wind: 0mph
Humidity: 79%   Direction: NA
Pressure: 30.05"   Gusts: NA
Location:  21.32°N, 158.08°W
Report Text: PHJR 250553Z 00000KT 10SM BKN070 24/21 A3005 RMK AO2 SLP181 T02440206 10300 20239 53017
Loading
Personal Weather Stations






























Interactive Weather Map
Tropical Storm Tracking
New forecast layout! Learn more

10-Day Weather Forecast

Advertisements
Track Severe Weather on mobile